SBKP/CPQ METAR and TAF weather

Enter ICAO airport designator
Station Type Date Time Source
SBKP METAR 2020/01/17 14:00 UTC NOAA

SBKP 171400Z 14012KT 9999 BKN017 BKN100 23/18 Q1021


Station Type Date Time Source
SBKP Decoded METAR 2020/01/17 14:00 UTC NOAA

Campinas Aeroporto , Brazil (SBKP) 23-00S 047-08W 661M
Jan 17, 2020 - 09:00 AM EST / 2020.01.17 1400 UTC
Wind: from the SE (140 degrees) at 14 MPH (12 KT):0
Visibility: greater than 7 mile(s):0
Sky conditions: mostly cloudy
Temperature: 73 F (23 C)
Dew Point: 64 F (18 C)
Relative Humidity: 73%
Pressure (altimeter): 30.15 in. Hg (1021 hPa)
ob: SBKP 171400Z 14012KT 9999 BKN017 BKN100 23/18 Q1021
cycle: 14

Station Type Date Time Source
SBKP TAF 2020/01/17 12:33 UTC NOAA

TAF SBKP 171010Z 1712/1812 15015KT 9999 SCT017TX25/1717Z TN18/1809Z
BECMG 1713/1715 SCT030
BECMG 1723/1801 13010KT CAVOK
RMK PGN

Example: see airport list